Time;durP1;ratioP1;P1;durP2;ratioP2;P2;SDS_P1;SDS_P2;PMS_P1;PMS_P2;Temp;Humidity;BMP_temperature;BMP_pressure;BME280_temperature;BME280_humidity;BME280_pressure;Samples;Min_cycle;Max_cycle;Signal;HPM_P1;HPM_P2
2021/11/01 00:00:47;;;;;;;18.93;3.03;;;;;;;;;;4976746;28;20494;-83
2021/11/01 00:03:14;;;;;;;26.43;3.00;;;;;;;;;;4982020;28;20446;-83
2021/11/01 00:05:42;;;;;;;16.80;2.70;;;;;;;;;;4973158;28;20461;-81
2021/11/01 00:08:09;;;;;;;15.27;2.70;;;;;;;;;;4971195;28;20476;-82
2021/11/01 00:10:37;;;;;;;19.40;2.90;;;;;;;;;;4980861;28;20454;-82
2021/11/01 00:13:04;;;;;;;16.90;2.43;;;;;;;;;;4978965;28;20488;-82
2021/11/01 00:15:31;;;;;;;24.50;3.13;;;;;;;;;;4978428;28;20464;-81
2021/11/01 00:17:58;;;;;;;21.23;2.83;;;;;;;;;;4978625;28;20490;-82
2021/11/01 00:20:26;;;;;;;20.20;3.40;;;;;;;;;;4977511;28;20496;-82
2021/11/01 00:22:54;;;;;;;17.60;3.60;;;;;;;;;;4982765;28;20455;-81
2021/11/01 00:25:22;;;;;;;21.73;2.63;;;;;;;;;;4982492;28;20458;-80
2021/11/01 00:27:49;;;;;;;20.50;3.27;;;;;;;;;;4977691;28;20478;-83
2021/11/01 00:30:16;;;;;;;21.90;2.57;;;;;;;;;;4980451;28;20446;-80
2021/11/01 00:32:46;;;;;;;20.13;3.73;;;;;;;;;;4978533;28;20464;-81
2021/11/01 00:35:13;;;;;;;17.40;2.53;;;;;;;;;;4981890;28;20487;-79
2021/11/01 00:37:41;;;;;;;17.33;2.47;;;;;;;;;;4983834;28;20480;-81
2021/11/01 00:40:10;;;;;;;16.63;2.43;;;;;;;;;;4981229;28;20498;-83
2021/11/01 00:42:37;;;;;;;20.83;3.73;;;;;;;;;;4969594;28;21146;-80
2021/11/01 00:45:04;;;;;;;17.80;2.23;;;;;;;;;;4979872;28;20455;-84
2021/11/01 00:47:31;;;;;;;20.10;3.33;;;;;;;;;;4985937;28;21021;-80
2021/11/01 00:49:59;;;;;;;19.57;2.60;;;;;;;;;;4978480;28;20459;-82
2021/11/01 00:52:28;;;;;;;18.80;3.00;;;;;;;;;;4981104;28;20466;-83
2021/11/01 00:54:59;;;;;;;22.50;2.83;;;;;;;;;;4984194;28;20965;-81
2021/11/01 00:57:28;;;;;;;20.27;2.73;;;;;;;;;;4973053;28;20893;-84
2021/11/01 00:59:56;;;;;;;19.20;2.27;;;;;;;;;;4983484;28;20481;-82
2021/11/01 01:02:23;;;;;;;20.07;2.90;;;;;;;;;;4976180;28;20958;-82
2021/11/01 01:04:50;;;;;;;17.57;2.77;;;;;;;;;;4979128;28;20527;-84
2021/11/01 01:07:18;;;;;;;23.90;3.13;;;;;;;;;;4978077;28;20844;-82
2021/11/01 01:09:45;;;;;;;19.17;2.53;;;;;;;;;;4980524;28;20488;-83
2021/11/01 01:12:12;;;;;;;21.30;3.07;;;;;;;;;;4974618;28;20461;-83
2021/11/01 01:14:45;;;;;;;24.23;2.83;;;;;;;;;;4977253;28;20465;-82
2021/11/01 01:17:12;;;;;;;20.73;2.20;;;;;;;;;;4971800;28;20484;-83
2021/11/01 01:19:51;;;;;;;18.37;2.60;;;;;;;;;;4984628;28;20452;-81
2021/11/01 01:25:13;;;;;;;18.47;2.20;;;;;;;;;;4982411;28;20450;-84
2021/11/01 01:27:40;;;;;;;21.03;2.10;;;;;;;;;;4996140;28;20883;-83
2021/11/01 01:30:10;;;;;;;26.70;2.67;;;;;;;;;;4977840;28;20486;-83
2021/11/01 01:32:37;;;;;;;22.33;2.70;;;;;;;;;;4984581;28;20454;-83
2021/11/01 01:35:04;;;;;;;15.93;2.20;;;;;;;;;;4980550;28;20863;-85
2021/11/01 01:37:31;;;;;;;23.70;2.63;;;;;;;;;;4988226;28;20504;-84
2021/11/01 01:39:58;;;;;;;22.87;2.37;;;;;;;;;;4986287;28;20529;-84
2021/11/01 01:42:26;;;;;;;20.33;2.13;;;;;;;;;;4987469;28;20471;-84
2021/11/01 01:44:53;;;;;;;19.80;2.80;;;;;;;;;;4985533;28;20549;-84
2021/11/01 01:47:21;;;;;;;24.83;2.67;;;;;;;;;;4985971;28;20497;-84
2021/11/01 01:49:48;;;;;;;21.90;3.30;;;;;;;;;;4983530;28;20450;-84
2021/11/01 01:52:16;;;;;;;18.30;2.17;;;;;;;;;;4984545;28;20474;-83
2021/11/01 01:54:44;;;;;;;21.40;2.13;;;;;;;;;;4987669;28;20476;-83
2021/11/01 01:57:11;;;;;;;18.57;2.13;;;;;;;;;;4986431;28;20534;-84
2021/11/01 01:59:38;;;;;;;19.93;2.40;;;;;;;;;;4986236;28;20485;-84
2021/11/01 02:02:05;;;;;;;22.43;3.97;;;;;;;;;;4983193;28;20493;-83
2021/11/01 02:04:35;;;;;;;17.13;2.30;;;;;;;;;;4986931;28;20468;-83
2021/11/01 02:07:15;;;;;;;21.47;2.80;;;;;;;;;;4986675;28;20479;-84
2021/11/01 02:09:48;;;;;;;23.20;2.53;;;;;;;;;;4982270;28;20972;-84
2021/11/01 02:12:18;;;;;;;16.30;2.00;;;;;;;;;;4994863;28;20457;-84
2021/11/01 02:14:46;;;;;;;19.33;2.30;;;;;;;;;;4993391;28;20989;-83
2021/11/01 02:17:16;;;;;;;16.03;2.20;;;;;;;;;;4980220;28;20483;-81
2021/11/01 02:19:47;;;;;;;20.97;2.43;;;;;;;;;;4978758;28;20468;-80
2021/11/01 02:22:18;;;;;;;14.67;2.00;;;;;;;;;;4976942;28;20497;-81
2021/11/01 02:24:54;;;;;;;19.80;2.13;;;;;;;;;;4979386;28;20473;-81
2021/11/01 02:27:23;;;;;;;20.17;2.20;;;;;;;;;;4984943;28;20531;-81
2021/11/01 02:29:51;;;;;;;15.00;2.03;;;;;;;;;;4979172;28;20555;-82
2021/11/01 02:32:19;;;;;;;18.30;2.00;;;;;;;;;;4981650;28;20470;-81
2021/11/01 02:34:47;;;;;;;20.00;3.03;;;;;;;;;;4976386;28;20455;-82
2021/11/01 02:37:14;;;;;;;18.10;2.27;;;;;;;;;;4975831;28;20573;-81
2021/11/01 02:39:48;;;;;;;17.37;2.50;;;;;;;;;;4976589;28;20459;-81
2021/11/01 02:42:16;;;;;;;19.13;2.33;;;;;;;;;;4962950;28;20485;-83
2021/11/01 02:44:52;;;;;;;18.33;2.07;;;;;;;;;;4966833;28;20492;-82
2021/11/01 02:47:19;;;;;;;18.40;2.43;;;;;;;;;;4976604;28;20486;-83
2021/11/01 02:49:46;;;;;;;19.17;2.40;;;;;;;;;;4975468;28;20480;-83
2021/11/01 02:52:13;;;;;;;19.10;2.10;;;;;;;;;;4975784;28;20888;-80
2021/11/01 02:54:40;;;;;;;19.03;2.10;;;;;;;;;;4964894;28;20463;-81
2021/11/01 02:57:08;;;;;;;17.10;2.33;;;;;;;;;;4976272;28;20854;-81
2021/11/01 02:59:35;;;;;;;18.13;1.80;;;;;;;;;;4965349;28;20457;-82
2021/11/01 03:02:03;;;;;;;17.90;2.23;;;;;;;;;;4981217;28;20489;-82
2021/11/01 03:04:31;;;;;;;18.93;2.20;;;;;;;;;;4987671;28;20469;-81
2021/11/01 03:06:59;;;;;;;25.20;2.37;;;;;;;;;;4987470;28;20484;-83
2021/11/01 03:09:28;;;;;;;19.00;1.77;;;;;;;;;;4978339;28;20472;-81
2021/11/01 03:11:55;;;;;;;19.27;1.97;;;;;;;;;;4975505;28;20896;-81
2021/11/01 03:14:32;;;;;;;17.40;1.90;;;;;;;;;;4973814;28;20997;-81
2021/11/01 03:17:00;;;;;;;24.40;2.00;;;;;;;;;;4971067;28;20916;-82
2021/11/01 03:19:30;;;;;;;20.40;3.37;;;;;;;;;;4976360;28;20466;-83
2021/11/01 03:21:57;;;;;;;17.60;1.93;;;;;;;;;;4973409;28;20505;-82
2021/11/01 03:24:25;;;;;;;18.07;2.43;;;;;;;;;;4988884;28;21002;-82
2021/11/01 03:26:54;;;;;;;17.37;2.20;;;;;;;;;;4979018;28;20923;-83
2021/11/01 03:29:22;;;;;;;16.63;1.73;;;;;;;;;;4975829;28;20449;-82
2021/11/01 03:31:50;;;;;;;18.30;2.47;;;;;;;;;;4967855;28;20459;-82
2021/11/01 03:34:18;;;;;;;17.50;1.97;;;;;;;;;;4974062;28;20460;-81
2021/11/01 03:36:48;;;;;;;17.93;1.57;;;;;;;;;;4975644;28;20480;-82
2021/11/01 03:39:15;;;;;;;16.60;2.00;;;;;;;;;;4973606;28;20469;-82
2021/11/01 03:41:43;;;;;;;18.17;1.90;;;;;;;;;;4973009;28;20493;-83
2021/11/01 03:44:16;;;;;;;16.70;1.77;;;;;;;;;;4974261;28;20461;-82
2021/11/01 03:46:51;;;;;;;22.03;1.60;;;;;;;;;;4974911;28;20464;-82
2021/11/01 03:49:18;;;;;;;20.50;1.60;;;;;;;;;;4974121;28;20465;-83
2021/11/01 03:51:49;;;;;;;17.70;2.20;;;;;;;;;;4974445;28;20463;-83
2021/11/01 03:54:18;;;;;;;20.33;2.07;;;;;;;;;;4969797;28;20712;-82
2021/11/01 03:56:45;;;;;;;19.10;2.37;;;;;;;;;;4978676;28;20485;-84
2021/11/01 03:59:13;;;;;;;16.77;1.53;;;;;;;;;;4976513;28;20561;-82
2021/11/01 04:01:40;;;;;;;15.80;1.63;;;;;;;;;;4972210;28;20499;-80
2021/11/01 04:04:08;;;;;;;15.87;1.97;;;;;;;;;;4973905;28;20460;-81
2021/11/01 04:06:38;;;;;;;15.83;1.57;;;;;;;;;;4975200;28;20511;-83
2021/11/01 04:09:07;;;;;;;21.20;2.50;;;;;;;;;;4997157;28;20469;-80
2021/11/01 04:11:36;;;;;;;20.37;1.70;;;;;;;;;;4978255;28;20909;-83
2021/11/01 04:14:09;;;;;;;18.10;2.20;;;;;;;;;;5002284;28;20452;-82
2021/11/01 04:16:40;;;;;;;20.33;2.33;;;;;;;;;;4979381;28;20458;-82
2021/11/01 04:19:31;;;;;;;20.07;3.27;;;;;;;;;;4979085;28;20465;-83
2021/11/01 04:21:58;;;;;;;16.03;2.03;;;;;;;;;;4976771;28;20480;-81
2021/11/01 04:24:30;;;;;;;17.27;2.50;;;;;;;;;;4978284;28;20875;-80
2021/11/01 04:26:57;;;;;;;20.73;2.73;;;;;;;;;;4997941;28;20554;-82
2021/11/01 04:29:29;;;;;;;17.93;2.00;;;;;;;;;;4980065;28;20450;-83
2021/11/01 04:32:02;;;;;;;16.43;1.93;;;;;;;;;;4978125;28;20458;-82
2021/11/01 04:34:32;;;;;;;18.03;2.43;;;;;;;;;;4972533;28;20445;-83
2021/11/01 04:36:59;;;;;;;21.63;2.67;;;;;;;;;;4975061;28;20482;-83
2021/11/01 04:39:36;;;;;;;19.00;2.03;;;;;;;;;;4970309;28;20921;-80
2021/11/01 04:53:13;;;;;;;18.33;2.07;;;;;;;;;;4975753;28;20420;-81
2021/11/01 04:55:44;;;;;;;20.90;2.80;;;;;;;;;;4970850;28;20457;-81
2021/11/01 04:58:11;;;;;;;18.30;1.87;;;;;;;;;;4972222;28;20992;-81
2021/11/01 05:00:39;;;;;;;16.63;2.23;;;;;;;;;;4973562;28;20457;-81
2021/11/01 05:03:10;;;;;;;14.73;2.00;;;;;;;;;;4972372;28;20523;-83
2021/11/01 05:05:38;;;;;;;15.80;1.70;;;;;;;;;;4973381;28;20517;-81
2021/11/01 05:08:05;;;;;;;15.10;1.93;;;;;;;;;;4968861;28;20530;-81
2021/11/01 05:10:35;;;;;;;15.93;2.00;;;;;;;;;;4973834;28;20889;-81
2021/11/01 05:13:08;;;;;;;15.77;1.97;;;;;;;;;;4970119;28;20452;-80
2021/11/01 05:15:39;;;;;;;16.57;1.90;;;;;;;;;;4972267;28;20895;-82
2021/11/01 05:18:17;;;;;;;15.60;2.23;;;;;;;;;;4972874;28;20985;-80
2021/11/01 05:20:49;;;;;;;81.03;11.60;;;;;;;;;;4972867;28;20456;-81
2021/11/01 05:23:27;;;;;;;354.97;36.53;;;;;;;;;;4973637;28;20522;-81
2021/11/01 05:25:57;;;;;;;11.47;1.87;;;;;;;;;;4974121;28;20465;-80
2021/11/01 05:28:30;;;;;;;11.47;1.80;;;;;;;;;;4974099;28;20477;-81
2021/11/01 05:31:00;;;;;;;9.97;1.67;;;;;;;;;;4971712;28;20461;-80
2021/11/01 05:36:14;;;;;;;7.27;1.73;;;;;;;;;;4987868;28;21020;-81
2021/11/01 05:38:41;;;;;;;5.80;1.60;;;;;;;;;;4975122;28;20480;-81
2021/11/01 05:41:09;;;;;;;7.87;1.60;;;;;;;;;;4973730;28;20454;-82
2021/11/01 05:43:37;;;;;;;9.97;1.70;;;;;;;;;;4973737;28;20507;-82
2021/11/01 05:46:04;;;;;;;7.53;1.77;;;;;;;;;;4972841;28;20466;-81
2021/11/01 05:48:31;;;;;;;8.67;1.87;;;;;;;;;;4972477;28;20478;-81
2021/11/01 05:50:58;;;;;;;9.20;1.63;;;;;;;;;;4973390;28;20450;-81
2021/11/01 05:53:28;;;;;;;9.10;2.50;;;;;;;;;;4982879;28;20460;-81
2021/11/01 05:56:01;;;;;;;7.27;1.63;;;;;;;;;;4976964;28;20456;-81
2021/11/01 05:58:33;;;;;;;6.53;1.50;;;;;;;;;;4975319;28;20554;-83
2021/11/01 06:01:22;;;;;;;10.17;1.87;;;;;;;;;;4979155;28;20449;-82
2021/11/01 06:03:58;;;;;;;10.37;1.60;;;;;;;;;;4976928;28;20453;-84
2021/11/01 06:06:40;;;;;;;9.60;1.97;;;;;;;;;;4977454;28;20934;-82
2021/11/01 06:09:20;;;;;;;8.63;1.73;;;;;;;;;;4979026;28;20453;-82
2021/11/01 06:14:32;;;;;;;7.40;1.50;;;;;;;;;;4976319;28;20448;-83
2021/11/01 06:17:01;;;;;;;6.47;2.00;;;;;;;;;;4994498;28;20476;-82
2021/11/01 06:19:28;;;;;;;8.67;1.97;;;;;;;;;;4983419;28;21077;-80
2021/11/01 06:21:55;;;;;;;10.23;2.00;;;;;;;;;;4975258;28;20489;-81
2021/11/01 06:24:47;;;;;;;9.17;1.90;;;;;;;;;;4979169;28;20491;-82
2021/11/01 06:27:15;;;;;;;6.53;1.53;;;;;;;;;;4990219;28;20540;-82
2021/11/01 06:29:56;;;;;;;10.97;1.67;;;;;;;;;;4996329;28;21271;-80
2021/11/01 06:32:35;;;;;;;7.37;1.67;;;;;;;;;;5004615;28;20452;-81
2021/11/01 06:43:22;;;;;;;8.13;1.40;;;;;;;;;;4982792;28;20497;-83
2021/11/01 06:51:32;;;;;;;7.50;1.27;;;;;;;;;;5010341;28;20432;-82
2021/11/01 06:54:21;;;;;;;10.03;1.77;;;;;;;;;;4990444;28;20477;-83
2021/11/01 06:57:01;;;;;;;7.63;1.83;;;;;;;;;;4979541;28;20509;-84
2021/11/01 07:16:12;;;;;;;6.40;1.50;;;;;;;;;;4981244;28;20432;-83
2021/11/01 07:18:46;;;;;;;12.63;1.30;;;;;;;;;;4993465;28;20519;-84
2021/11/01 07:21:36;;;;;;;8.87;1.63;;;;;;;;;;5049090;28;20460;-82
2021/11/01 08:22:21;;;;;;;10.10;1.70;;;;;;;;;;4971377;28;20484;-83
2021/11/01 08:28:06;;;;;;;7.50;1.37;;;;;;;;;;4984394;28;20478;-81
2021/11/01 08:47:29;;;;;;;8.18;1.40;;;;;;;;;;4991465;28;20466;-82
2021/11/01 09:03:58;;;;;;;10.23;1.70;;;;;;;;;;4978666;28;20501;-82
2021/11/01 09:06:44;;;;;;;8.63;1.83;;;;;;;;;;4978552;28;20843;-82
2021/11/01 09:20:20;;;;;;;8.90;1.43;;;;;;;;;;4979057;28;20997;-83
2021/11/01 09:25:52;;;;;;;10.47;1.60;;;;;;;;;;4971457;28;20517;-81
2021/11/01 09:28:25;;;;;;;8.17;1.70;;;;;;;;;;4975606;28;21112;-83
2021/11/01 09:36:33;;;;;;;8.37;2.03;;;;;;;;;;4970806;28;20466;-82
2021/11/01 09:39:20;;;;;;;10.03;1.50;;;;;;;;;;4978341;28;20498;-81
2021/11/01 09:41:48;;;;;;;10.77;1.60;;;;;;;;;;4983905;28;20469;-81
2021/11/01 09:44:20;;;;;;;8.83;2.27;;;;;;;;;;4974304;28;20461;-82
2021/11/01 09:46:47;;;;;;;8.00;1.63;;;;;;;;;;4977311;28;20490;-82
2021/11/01 09:49:16;;;;;;;6.73;1.30;;;;;;;;;;4971410;28;20465;-82
2021/11/01 09:51:44;;;;;;;8.57;1.70;;;;;;;;;;4975303;28;20471;-82
2021/11/01 09:54:20;;;;;;;11.47;1.53;;;;;;;;;;4969437;28;20459;-82
2021/11/01 09:56:56;;;;;;;8.20;2.67;;;;;;;;;;4970547;28;20476;-82
2021/11/01 09:59:24;;;;;;;9.33;1.90;;;;;;;;;;4973526;28;20459;-83
2021/11/01 10:01:52;;;;;;;9.70;1.70;;;;;;;;;;4977207;28;20462;-84
2021/11/01 10:04:21;;;;;;;11.50;2.23;;;;;;;;;;4976570;28;20469;-80
2021/11/01 10:06:52;;;;;;;6.13;1.57;;;;;;;;;;4977296;28;20832;-82
2021/11/01 10:09:28;;;;;;;15.03;2.73;;;;;;;;;;4977559;28;20869;-81
2021/11/01 10:11:55;;;;;;;8.50;2.00;;;;;;;;;;5010327;28;20449;-80
2021/11/01 10:14:25;;;;;;;8.13;1.77;;;;;;;;;;4970436;28;20454;-82
2021/11/01 10:19:41;;;;;;;9.33;2.37;;;;;;;;;;4973458;28;20961;-81
2021/11/01 10:22:09;;;;;;;12.70;2.30;;;;;;;;;;4975005;28;20849;-80
2021/11/01 10:24:40;;;;;;;8.30;1.73;;;;;;;;;;4976468;28;20455;-81
2021/11/01 10:27:08;;;;;;;11.97;1.83;;;;;;;;;;4977188;28;20510;-82
2021/11/01 10:29:36;;;;;;;7.30;1.30;;;;;;;;;;4975805;28;20499;-82
2021/11/01 10:32:04;;;;;;;9.17;1.80;;;;;;;;;;4975223;28;20970;-81
2021/11/01 10:34:32;;;;;;;8.17;1.43;;;;;;;;;;4987788;28;20982;-81
2021/11/01 10:37:04;;;;;;;12.03;1.70;;;;;;;;;;4968734;28;20507;-83
2021/11/01 10:39:31;;;;;;;6.80;1.37;;;;;;;;;;4976018;28;20465;-81
2021/11/01 10:42:08;;;;;;;9.97;1.60;;;;;;;;;;4974883;28;20453;-82
2021/11/01 11:12:48;;;;;;;9.03;2.10;;;;;;;;;;4964579;28;20450;-86
2021/11/01 11:15:15;;;;;;;6.90;1.27;;;;;;;;;;4993824;28;20467;-84
2021/11/01 11:17:50;;;;;;;8.33;1.80;;;;;;;;;;4995831;28;20835;-85
2021/11/01 11:20:43;;;;;;;9.77;1.57;;;;;;;;;;4991824;28;20483;-86
2021/11/01 11:29:04;;;;;;;7.43;1.10;;;;;;;;;;4980826;28;20552;-84
2021/11/01 11:32:05;;;;;;;6.87;1.53;;;;;;;;;;4982449;28;20482;-85
2021/11/01 11:37:43;;;;;;;12.40;1.70;;;;;;;;;;4985262;28;20524;-86
2021/11/01 11:40:26;;;;;;;6.73;1.37;;;;;;;;;;4982001;28;20515;-85
2021/11/01 11:43:11;;;;;;;10.90;1.30;;;;;;;;;;4975081;28;20487;-86
2021/11/01 11:48:33;;;;;;;7.20;1.10;;;;;;;;;;4976572;28;20447;-85
2021/11/01 11:51:05;;;;;;;8.50;1.30;;;;;;;;;;4982506;28;20511;-86
2021/11/01 11:53:33;;;;;;;9.03;1.53;;;;;;;;;;4981950;28;20523;-86
2021/11/01 11:56:05;;;;;;;6.30;1.20;;;;;;;;;;4989982;28;20469;-85
2021/11/01 11:58:38;;;;;;;7.70;1.60;;;;;;;;;;4981986;28;20484;-86
2021/11/01 12:01:20;;;;;;;6.87;1.50;;;;;;;;;;4979748;28;20463;-86
2021/11/01 12:03:48;;;;;;;8.47;1.40;;;;;;;;;;4986046;28;20487;-85
2021/11/01 12:06:17;;;;;;;6.80;1.10;;;;;;;;;;4997948;28;20644;-85
2021/11/01 12:08:49;;;;;;;6.80;1.33;;;;;;;;;;4982929;28;20498;-86
2021/11/01 12:11:31;;;;;;;8.07;1.77;;;;;;;;;;4980101;28;20555;-85
2021/11/01 12:17:06;;;;;;;8.90;1.70;;;;;;;;;;4983787;28;20469;-85
2021/11/01 12:19:33;;;;;;;8.40;1.77;;;;;;;;;;4988063;28;20477;-85
2021/11/01 12:22:04;;;;;;;6.53;1.30;;;;;;;;;;4984669;28;21013;-86
2021/11/01 12:24:31;;;;;;;5.77;1.13;;;;;;;;;;5000183;28;20562;-85
2021/11/01 12:27:02;;;;;;;7.60;1.30;;;;;;;;;;4985185;28;20468;-83
2021/11/01 12:29:34;;;;;;;6.20;1.10;;;;;;;;;;4996667;28;20442;-85
2021/11/01 12:32:05;;;;;;;7.07;1.00;;;;;;;;;;4979332;28;20521;-85
2021/11/01 12:34:34;;;;;;;7.33;1.20;;;;;;;;;;4988859;28;20461;-85
2021/11/01 12:37:05;;;;;;;6.30;1.10;;;;;;;;;;4976440;28;20898;-86
2021/11/01 12:39:36;;;;;;;8.40;1.50;;;;;;;;;;4985174;28;20464;-86
2021/11/01 12:58:55;;;;;;;8.63;1.10;;;;;;;;;;4921734;29;20448;-83
2021/11/01 13:01:24;;;;;;;7.27;1.10;;;;;;;;;;4947399;28;20456;-82
2021/11/01 13:03:53;;;;;;;8.30;1.37;;;;;;;;;;5014062;28;20482;-84
2021/11/01 13:06:36;;;;;;;7.00;1.27;;;;;;;;;;4961233;28;20461;-84
2021/11/01 13:09:09;;;;;;;7.30;1.10;;;;;;;;;;4977265;28;20466;-82
2021/11/01 13:11:53;;;;;;;5.50;0.90;;;;;;;;;;4971600;28;20463;-83
2021/11/01 13:19:48;;;;;;;6.57;1.13;;;;;;;;;;4979505;28;20513;-83
2021/11/01 13:22:20;;;;;;;5.50;1.00;;;;;;;;;;4979029;28;20972;-82
2021/11/01 13:24:54;;;;;;;7.43;1.20;;;;;;;;;;4979479;28;20499;-83
2021/11/01 13:27:35;;;;;;;5.83;0.93;;;;;;;;;;4974251;28;21078;-83
2021/11/01 13:35:46;;;;;;;7.23;1.03;;;;;;;;;;4978213;28;20514;-84
2021/11/01 13:38:13;;;;;;;6.83;1.30;;;;;;;;;;4978464;28;20505;-83
2021/11/01 13:40:42;;;;;;;7.27;1.37;;;;;;;;;;4977996;28;20470;-83
2021/11/01 13:43:09;;;;;;;6.20;1.10;;;;;;;;;;4978343;28;20490;-82
2021/11/01 13:45:37;;;;;;;6.03;1.00;;;;;;;;;;4978405;28;20460;-83
2021/11/01 13:48:06;;;;;;;10.73;1.33;;;;;;;;;;4979894;28;20507;-83
2021/11/01 13:50:36;;;;;;;7.43;1.40;;;;;;;;;;4978376;28;20453;-83
2021/11/01 13:53:07;;;;;;;7.90;1.27;;;;;;;;;;4979397;28;20514;-83
2021/11/01 13:55:42;;;;;;;9.57;1.10;;;;;;;;;;4972950;28;20467;-83
2021/11/01 13:58:19;;;;;;;8.17;1.60;;;;;;;;;;4972756;28;20490;-82
2021/11/01 14:00:53;;;;;;;8.40;1.67;;;;;;;;;;4972254;28;20460;-83
2021/11/01 14:10:51;;;;;;;7.60;1.33;;;;;;;;;;4974315;28;20897;-82
2021/11/01 14:12:11;;;;;;;7.53;1.20;;;;;;;;;;4958824;28;20450;-82
2021/11/01 14:14:51;;;;;;;8.03;1.20;;;;;;;;;;4979544;28;20462;-83
2021/11/01 14:17:35;;;;;;;8.77;1.40;;;;;;;;;;4976765;28;20943;-83
2021/11/01 14:20:36;;;;;;;7.70;1.20;;;;;;;;;;4976410;28;20809;-82
2021/11/01 14:28:39;;;;;;;8.43;1.43;;;;;;;;;;4980302;28;20459;-83
2021/11/01 14:31:30;;;;;;;7.13;1.20;;;;;;;;;;4974960;28;20994;-82
2021/11/01 14:34:22;;;;;;;8.87;1.50;;;;;;;;;;4984237;28;20452;-82
2021/11/01 14:54:57;;;;;;;8.73;1.20;;;;;;;;;;4981789;28;20498;-82
2021/11/01 14:59:46;;;;;;;9.40;1.27;;;;;;;;;;4954996;28;20448;-83
2021/11/01 15:19:18;;;;;;;7.00;1.47;;;;;;;;;;4935670;29;20526;-82
2021/11/01 15:21:58;;;;;;;8.33;1.40;;;;;;;;;;4963548;28;20464;-82
2021/11/01 15:27:27;;;;;;;7.00;1.30;;;;;;;;;;4974705;28;20474;-83
2021/11/01 15:32:51;;;;;;;8.63;1.50;;;;;;;;;;4976866;28;20460;-81
2021/11/01 15:35:44;;;;;;;9.07;1.50;;;;;;;;;;4976744;28;20513;-81
2021/11/01 15:38:21;;;;;;;7.70;1.40;;;;;;;;;;4976601;28;20534;-81
2021/11/01 16:16:44;;;;;;;6.67;1.10;;;;;;;;;;4977282;28;20467;-81
2021/11/01 16:19:12;;;;;;;8.83;1.50;;;;;;;;;;4977682;28;20452;-81
2021/11/01 16:21:39;;;;;;;6.90;1.10;;;;;;;;;;4978181;28;20461;-83
2021/11/01 16:24:07;;;;;;;7.03;1.20;;;;;;;;;;4979196;28;20590;-81
2021/11/01 16:26:35;;;;;;;8.33;1.50;;;;;;;;;;4978395;28;20459;-84
2021/11/01 16:29:06;;;;;;;9.27;2.20;;;;;;;;;;4978585;28;20471;-81
2021/11/01 16:31:43;;;;;;;8.07;1.30;;;;;;;;;;4978561;28;20471;-81
2021/11/01 16:34:14;;;;;;;7.77;1.53;;;;;;;;;;4973128;28;20452;-81
2021/11/01 16:39:47;;;;;;;7.63;1.57;;;;;;;;;;4978864;28;20450;-81
2021/11/01 16:42:14;;;;;;;9.73;1.70;;;;;;;;;;4978229;28;20509;-81
2021/11/01 16:44:42;;;;;;;8.97;1.60;;;;;;;;;;4979158;28;20502;-82
2021/11/01 16:47:11;;;;;;;12.13;4.47;;;;;;;;;;4973874;28;20854;-81
2021/11/01 16:49:40;;;;;;;14.13;4.37;;;;;;;;;;4977780;28;20579;-82
2021/11/01 16:52:15;;;;;;;9.83;4.80;;;;;;;;;;4973992;28;20460;-82
2021/11/01 16:54:44;;;;;;;8.50;2.83;;;;;;;;;;4970716;28;20514;-82
2021/11/01 16:57:16;;;;;;;8.77;2.70;;;;;;;;;;4973402;28;20540;-82
2021/11/01 16:59:53;;;;;;;8.53;2.07;;;;;;;;;;4969859;28;20550;-85
2021/11/01 17:02:38;;;;;;;6.93;1.40;;;;;;;;;;4974458;28;20879;-81
2021/11/01 17:05:14;;;;;;;9.30;2.00;;;;;;;;;;4971116;28;20495;-83
2021/11/01 17:07:59;;;;;;;9.50;2.00;;;;;;;;;;4975674;28;20533;-83
2021/11/01 17:10:55;;;;;;;6.23;1.70;;;;;;;;;;4978428;28;21121;-83
2021/11/01 17:21:41;;;;;;;6.60;1.30;;;;;;;;;;4980267;28;21051;-82
2021/11/01 17:24:16;;;;;;;8.97;1.70;;;;;;;;;;4978624;28;20608;-82
2021/11/01 17:35:23;;;;;;;8.03;1.60;;;;;;;;;;4979266;28;20950;-81
2021/11/01 17:38:20;;;;;;;12.30;3.10;;;;;;;;;;4978743;28;20513;-83
2021/11/01 18:39:24;;;;;;;18.30;5.70;;;;;;;;;;4933974;28;20522;-81
2021/11/01 18:42:05;;;;;;;14.17;5.33;;;;;;;;;;4959284;28;20466;-81
2021/11/01 18:44:57;;;;;;;12.40;4.23;;;;;;;;;;4964091;28;20494;-81
2021/11/01 18:52:59;;;;;;;9.57;3.57;;;;;;;;;;4975985;28;20433;-81
2021/11/01 18:55:27;;;;;;;15.33;3.03;;;;;;;;;;4975724;28;20451;-82
2021/11/01 18:57:55;;;;;;;8.60;3.10;;;;;;;;;;4975720;28;20477;-83
2021/11/01 19:00:22;;;;;;;8.20;2.40;;;;;;;;;;5018125;28;20534;-83
2021/11/01 19:02:51;;;;;;;9.10;3.00;;;;;;;;;;4978246;28;20453;-83
2021/11/01 19:05:29;;;;;;;7.10;1.80;;;;;;;;;;4988642;28;20494;-84
2021/11/01 19:08:19;;;;;;;7.90;2.10;;;;;;;;;;4969045;28;20544;-83
2021/11/01 20:03:41;;;;;;;6.40;1.30;;;;;;;;;;4981709;28;20470;-82
2021/11/01 20:06:26;;;;;;;10.50;1.80;;;;;;;;;;4989094;28;20502;-83
2021/11/01 20:14:42;;;;;;;8.23;1.83;;;;;;;;;;4983455;28;20439;-83
2021/11/01 21:26:20;;;;;;;8.70;1.77;;;;;;;;;;4973493;28;20479;-79
2021/11/01 21:28:50;;;;;;;7.97;1.50;;;;;;;;;;4979662;28;20508;-81
2021/11/01 21:31:17;;;;;;;9.10;1.60;;;;;;;;;;4976520;28;20456;-80
2021/11/01 21:33:50;;;;;;;6.33;1.77;;;;;;;;;;4979678;28;20547;-80
2021/11/01 21:36:23;;;;;;;11.77;3.00;;;;;;;;;;4975062;28;20549;-80
2021/11/01 21:38:50;;;;;;;6.20;1.70;;;;;;;;;;4974142;28;20568;-80
2021/11/01 21:41:19;;;;;;;5.90;1.40;;;;;;;;;;4971167;28;20461;-79
2021/11/01 21:43:49;;;;;;;9.60;1.83;;;;;;;;;;4979046;28;20451;-80
2021/11/01 21:46:16;;;;;;;5.50;1.47;;;;;;;;;;4987754;28;20508;-80
2021/11/01 21:48:43;;;;;;;9.60;1.80;;;;;;;;;;4987022;28;20475;-80
2021/11/01 21:51:11;;;;;;;8.03;1.77;;;;;;;;;;4977350;28;20467;-80
2021/11/01 21:53:39;;;;;;;7.40;1.87;;;;;;;;;;4988057;28;20466;-80
2021/11/01 21:56:12;;;;;;;6.80;1.93;;;;;;;;;;4975472;28;20456;-80
2021/11/01 21:59:05;;;;;;;5.77;2.00;;;;;;;;;;4962660;28;20481;-80
2021/11/01 22:09:39;;;;;;;7.47;1.70;;;;;;;;;;4977564;28;20455;-80
2021/11/01 22:10:30;;;;;;;8.73;1.80;;;;;;;;;;4982387;28;20448;-81
2021/11/01 22:18:30;;;;;;;7.30;1.60;;;;;;;;;;4974361;28;20484;-79
2021/11/01 22:21:01;;;;;;;8.23;1.97;;;;;;;;;;4965476;28;20463;-80
2021/11/01 22:23:38;;;;;;;7.53;2.10;;;;;;;;;;4981645;28;20565;-79
2021/11/01 22:26:09;;;;;;;8.57;1.77;;;;;;;;;;4981054;28;20484;-80
2021/11/01 22:34:18;;;;;;;7.60;2.10;;;;;;;;;;4978988;28;20464;-79
2021/11/01 22:39:35;;;;;;;10.33;3.77;;;;;;;;;;4976239;28;20441;-80
2021/11/01 22:48:01;;;;;;;10.30;2.03;;;;;;;;;;4968253;28;20854;-80
2021/11/01 22:56:12;;;;;;;7.10;1.80;;;;;;;;;;4970531;28;20454;-80
2021/11/01 22:58:41;;;;;;;7.67;1.83;;;;;;;;;;4973634;28;20481;-80
2021/11/01 23:01:11;;;;;;;5.90;1.90;;;;;;;;;;4972877;28;20556;-80
2021/11/01 23:03:46;;;;;;;6.20;1.60;;;;;;;;;;4985137;28;20949;-80
2021/11/01 23:06:37;;;;;;;7.57;1.70;;;;;;;;;;4977209;28;21076;-80
2021/11/01 23:31:29;;;;;;;7.40;2.10;;;;;;;;;;4975125;28;20447;-80
2021/11/01 23:33:56;;;;;;;6.63;1.80;;;;;;;;;;4975696;28;20555;-80
2021/11/01 23:36:24;;;;;;;7.53;1.60;;;;;;;;;;4979749;28;21165;-80
2021/11/01 23:38:52;;;;;;;8.47;1.80;;;;;;;;;;4968836;28;20485;-80
2021/11/01 23:41:19;;;;;;;5.73;1.70;;;;;;;;;;4976661;28;20463;-80
2021/11/01 23:43:47;;;;;;;7.60;1.90;;;;;;;;;;5020197;23;20474;-78
2021/11/01 23:46:14;;;;;;;7.90;2.20;;;;;;;;;;5111047;28;20486;-78
2021/11/01 23:48:42;;;;;;;7.17;1.93;;;;;;;;;;5112419;28;20451;-78
2021/11/01 23:51:10;;;;;;;6.57;1.53;;;;;;;;;;5109531;28;20466;-78
2021/11/01 23:53:43;;;;;;;11.10;2.07;;;;;;;;;;5098064;28;20949;-78
2021/11/01 23:56:11;;;;;;;9.50;2.30;;;;;;;;;;5091422;28;20514;-78
2021/11/01 23:58:38;;;;;;;6.20;1.80;;;;;;;;;;5093253;28;20459;-78
